Fairplay, Indiana
Current Conditions -  °F | °C
As of 12:55 AM on Sunday 23 Nov 2014 (Local Time) from KDCY Reporting Station
Broken Clouds Broken Clouds  
Wind Chill: 51°   Ceiling: 11000
Heat Index: 51°   Visibility: 10mi
Dew Point: 39°   Wind: 9mph
Humidity: 63%   Direction: 180°S
Pressure: 29.97"   Gusts: NA
Location:  39.0399°N, 87.0482°W
Report Text: KDCY 230555Z AUTO 18008KT 10SM SCT080 SCT085 BKN110 11/04 A2997 RMK AO2 T01080040 10116 20102 401560016
Loading
Personal Weather Stations






























Interactive Weather Map New forecast layout! Learn more

10-Day Weather Forecast

Advertisements
Track Severe Weather on mobile